Time;durP1;ratioP1;P1;durP2;ratioP2;P2;SDS_P1;SDS_P2;PMS_P1;PMS_P2;Temp;Humidity;BMP_temperature;BMP_pressure;BME280_temperature;BME280_humidity;BME280_pressure;Samples;Min_cycle;Max_cycle;Signal;HPM_P1;HPM_P2
2020/12/17 00:00:22;;;;;;;35.78;22.30;;;;;;;7.43;92.33;100666.84;5051556;28;20155;-85
2020/12/17 00:02:50;;;;;;;38.50;23.35;;;;;;;7.47;92.37;100673.75;5048639;28;20129;-83
2020/12/17 00:05:19;;;;;;;35.03;22.38;;;;;;;7.45;92.65;100668.53;5034189;28;20053;-83
2020/12/17 00:07:47;;;;;;;36.00;23.67;;;;;;;7.48;92.51;100673.72;5027384;28;20109;-84
2020/12/17 00:10:15;;;;;;;35.75;22.20;;;;;;;7.46;92.64;100672.88;5050615;28;20060;-82
2020/12/17 00:12:43;;;;;;;37.97;22.10;;;;;;;7.48;92.56;100667.56;5043663;28;20091;-84
2020/12/17 00:15:15;;;;;;;38.97;22.75;;;;;;;7.47;92.81;100673.75;5031347;28;20053;-83
2020/12/17 00:17:45;;;;;;;40.42;23.83;;;;;;;7.43;93.01;100667.72;5039741;28;20056;-83
2020/12/17 00:20:13;;;;;;;39.17;23.13;;;;;;;7.37;93.28;100662.63;5038909;28;20544;-83
2020/12/17 00:22:40;;;;;;;43.15;24.08;;;;;;;7.37;93.77;100663.50;5034107;28;20057;-83
2020/12/17 00:25:12;;;;;;;45.65;24.33;;;;;;;7.31;93.89;100657.53;5039226;28;20106;-83
2020/12/17 00:27:40;;;;;;;41.55;24.23;;;;;;;7.27;94.08;100661.16;5031597;28;20065;-84
2020/12/17 00:30:09;;;;;;;52.00;25.35;;;;;;;7.23;94.46;100649.00;5029421;28;20049;-82
2020/12/17 00:32:38;;;;;;;50.33;27.30;;;;;;;7.18;94.85;100654.41;5032195;28;20392;-83
2020/12/17 00:35:07;;;;;;;52.25;26.40;;;;;;;7.09;95.29;100643.25;5015672;28;20100;-83
2020/12/17 00:37:35;;;;;;;52.40;26.42;;;;;;;7.11;95.36;100649.34;5033662;28;20124;-83
2020/12/17 00:40:05;;;;;;;50.25;27.75;;;;;;;7.11;95.71;100646.72;5031708;28;20060;-84
2020/12/17 00:42:31;;;;;;;51.08;26.50;;;;;;;7.01;95.87;100632.97;5029506;28;20790;-84
2020/12/17 00:44:59;;;;;;;48.55;25.98;;;;;;;6.99;95.76;100630.38;5032842;28;20062;-84
2020/12/17 00:47:29;;;;;;;48.65;26.02;;;;;;;7.04;95.84;100652.16;5017321;28;20072;-83
2020/12/17 00:49:56;;;;;;;50.97;26.95;;;;;;;7.04;95.86;100656.56;5018987;28;20057;-84
2020/12/17 00:52:23;;;;;;;52.33;26.90;;;;;;;7.04;96.39;100652.16;5032832;28;20049;-83
2020/12/17 00:54:50;;;;;;;48.28;25.83;;;;;;;7.01;96.35;100639.09;5034929;28;20500;-84
2020/12/17 00:57:18;;;;;;;47.85;26.05;;;;;;;7.09;96.24;100652.00;5032321;28;20054;-84
2020/12/17 00:59:44;;;;;;;49.97;25.50;;;;;;;7.14;96.18;100654.53;5032777;28;20048;-84
2020/12/17 01:02:10;;;;;;;46.97;26.20;;;;;;;7.06;95.99;100627.56;5039442;28;20053;-83
2020/12/17 01:04:37;;;;;;;46.90;25.00;;;;;;;7.13;96.13;100643.13;5015815;28;20059;-83
2020/12/17 01:07:04;;;;;;;48.72;24.85;;;;;;;7.11;95.75;100650.22;5036077;28;20045;-83
2020/12/17 01:09:31;;;;;;;43.58;24.42;;;;;;;7.14;95.68;100660.66;5039972;28;20120;-83
2020/12/17 01:11:57;;;;;;;45.70;25.50;;;;;;;7.09;95.36;100669.59;5037570;28;20057;-83
2020/12/17 01:14:24;;;;;;;49.45;25.80;;;;;;;7.04;95.43;100661.84;5039828;28;20139;-84
2020/12/17 01:16:50;;;;;;;51.75;27.33;;;;;;;6.94;95.91;100649.81;5036875;28;20490;-84
2020/12/17 01:19:17;;;;;;;46.25;24.70;;;;;;;7.00;95.89;100662.81;5024120;28;20054;-84
2020/12/17 01:21:43;;;;;;;53.15;27.05;;;;;;;6.96;96.03;100661.16;5031815;28;20468;-84
2020/12/17 01:24:10;;;;;;;55.33;28.05;;;;;;;6.97;96.32;100660.28;5041265;28;20164;-84
2020/12/17 01:26:37;;;;;;;54.78;27.13;;;;;;;7.01;96.40;100668.06;5044509;28;20101;-84
2020/12/17 01:29:03;;;;;;;53.17;26.50;;;;;;;7.04;96.70;100680.28;5027165;28;20049;-84
2020/12/17 01:31:31;;;;;;;51.55;26.80;;;;;;;7.08;96.47;100673.16;5032831;28;20069;-84
2020/12/17 01:33:58;;;;;;;49.08;25.80;;;;;;;7.11;96.78;100676.53;5021542;28;20050;-84
2020/12/17 01:36:24;;;;;;;58.72;27.52;;;;;;;7.17;96.30;100679.00;5033885;28;20049;-84
2020/12/17 01:38:50;;;;;;;48.30;26.02;;;;;;;7.19;96.12;100686.88;5041882;28;20137;-83
2020/12/17 01:41:17;;;;;;;52.40;27.70;;;;;;;7.16;96.16;100679.06;5041750;28;20105;-84
2020/12/17 01:43:45;;;;;;;50.97;27.02;;;;;;;7.12;95.89;100682.66;5028364;28;20053;-83
2020/12/17 01:46:14;;;;;;;49.58;26.20;;;;;;;7.12;95.75;100687.94;5013041;28;20417;-83
2020/12/17 01:48:43;;;;;;;49.00;25.88;;;;;;;7.17;96.07;100696.59;5018568;28;20064;-83
2020/12/17 01:51:10;;;;;;;51.67;26.95;;;;;;;7.10;95.88;100693.25;5036808;28;20052;-83
2020/12/17 01:53:41;;;;;;;50.72;26.33;;;;;;;7.09;96.07;100694.16;5025064;28;20140;-82
2020/12/17 01:56:21;;;;;;;52.03;26.02;;;;;;;7.07;96.37;100681.97;5023192;28;20057;-83
2020/12/17 01:59:03;;;;;;;49.05;24.95;;;;;;;7.09;96.37;100678.34;5038072;28;20060;-83
2020/12/17 02:01:31;;;;;;;49.45;25.08;;;;;;;7.04;96.27;100680.28;5035647;28;20071;-83
2020/12/17 02:03:59;;;;;;;47.63;26.83;;;;;;;7.01;96.66;100682.97;5084137;22;20112;-81
2020/12/17 02:06:26;;;;;;;47.60;25.77;;;;;;;6.89;96.01;100670.16;5062889;28;20045;-81
2020/12/17 02:08:52;;;;;;;51.70;26.73;;;;;;;6.95;96.16;100689.28;5061785;28;20136;-83
2020/12/17 02:11:20;;;;;;;52.30;25.75;;;;;;;6.92;96.20;100691.16;5063637;28;20061;-83
2020/12/17 02:13:47;;;;;;;48.42;26.20;;;;;;;6.91;96.36;100685.03;5076711;28;20068;-84
2020/12/17 02:16:15;;;;;;;46.78;25.17;;;;;;;6.86;96.32;100683.41;5077421;28;20037;-83
2020/12/17 02:18:43;;;;;;;46.53;25.33;;;;;;;6.80;95.99;100673.91;5068055;28;20084;-79
2020/12/17 02:21:09;;;;;;;48.15;25.30;;;;;;;6.73;95.66;100685.50;5060465;28;20140;-81
2020/12/17 02:23:37;;;;;;;46.90;25.67;;;;;;;6.67;96.21;100689.16;5058882;28;20127;-82
2020/12/17 02:26:05;;;;;;;44.83;24.50;;;;;;;6.65;95.90;100696.22;5040838;28;20053;-81
2020/12/17 02:28:34;;;;;;;50.25;26.08;;;;;;;6.62;96.15;100698.94;5059289;28;20096;-84
2020/12/17 02:31:00;;;;;;;46.15;25.77;;;;;;;6.60;96.21;100692.00;5060359;28;20480;-81
2020/12/17 02:33:27;;;;;;;48.20;25.17;;;;;;;6.59;96.21;100687.66;5059537;28;20072;-82
2020/12/17 02:35:54;;;;;;;52.83;24.42;;;;;;;6.52;96.16;100683.44;5060273;28;20053;-81
2020/12/17 02:38:21;;;;;;;51.05;23.98;;;;;;;6.55;96.35;100683.34;5061581;28;20041;-81
2020/12/17 02:40:48;;;;;;;46.47;23.67;;;;;;;6.49;96.42;100684.38;5072880;28;20109;-81
2020/12/17 02:43:15;;;;;;;47.78;23.33;;;;;;;6.46;96.01;100689.69;5069334;28;20056;-82
2020/12/17 02:45:49;;;;;;;40.97;22.70;;;;;;;6.39;95.96;100682.03;5042961;28;20068;-84
2020/12/17 02:48:16;;;;;;;45.20;23.05;;;;;;;6.36;96.10;100685.59;5063227;28;20064;-82
2020/12/17 02:50:44;;;;;;;38.28;22.73;;;;;;;6.31;96.37;100693.56;5062923;28;20045;-83
2020/12/17 02:53:12;;;;;;;38.88;22.40;;;;;;;6.29;96.36;100699.81;5062847;28;20063;-81
2020/12/17 02:55:39;;;;;;;37.50;21.77;;;;;;;6.24;96.36;100693.78;5063082;28;20132;-81
2020/12/17 02:58:05;;;;;;;39.05;22.80;;;;;;;6.18;96.51;100684.28;5060776;28;20077;-81
2020/12/17 03:00:33;;;;;;;42.15;21.60;;;;;;;6.15;96.61;100686.97;5061007;28;20151;-83
2020/12/17 03:03:00;;;;;;;39.95;21.73;;;;;;;6.13;97.07;100682.66;5058600;28;20055;-83
2020/12/17 03:05:30;;;;;;;39.30;21.42;;;;;;;6.07;96.94;100694.19;5055320;28;20060;-82
2020/12/17 03:08:14;;;;;;;39.00;21.95;;;;;;;6.10;97.00;100698.50;5056212;28;20459;-83
2020/12/17 03:10:40;;;;;;;35.13;21.70;;;;;;;6.05;96.90;100695.97;5060721;28;20113;-84
2020/12/17 03:13:06;;;;;;;37.58;22.38;;;;;;;6.05;97.14;100698.63;5069456;28;20056;-82
2020/12/17 03:15:33;;;;;;;36.13;21.77;;;;;;;6.05;97.29;100695.13;5063027;28;20057;-83
2020/12/17 03:17:59;;;;;;;36.97;22.77;;;;;;;6.02;97.54;100693.44;5053152;28;20059;-83
2020/12/17 03:20:25;;;;;;;39.60;22.23;;;;;;;6.02;97.22;100713.59;5052196;28;20044;-81
2020/12/17 03:22:52;;;;;;;49.92;20.95;;;;;;;5.97;97.27;100701.44;5056808;28;20059;-82
2020/12/17 03:25:18;;;;;;;36.25;22.35;;;;;;;5.94;97.20;100698.00;5039222;28;20045;-82
2020/12/17 03:27:45;;;;;;;32.83;20.52;;;;;;;5.88;97.09;100709.53;5047275;28;20071;-82
2020/12/17 03:30:11;;;;;;;40.60;21.10;;;;;;;5.80;97.34;100703.56;5053068;28;20041;-82
2020/12/17 03:32:37;;;;;;;33.33;21.30;;;;;;;5.75;96.88;100702.78;5042328;28;20136;-82
2020/12/17 03:35:04;;;;;;;39.67;22.30;;;;;;;5.66;97.25;100700.38;5036955;28;20049;-81
2020/12/17 03:37:30;;;;;;;33.03;21.23;;;;;;;5.59;97.66;100698.75;5041510;28;20042;-79
2020/12/17 03:39:57;;;;;;;36.20;22.95;;;;;;;5.62;97.79;100702.19;5040299;28;20045;-82
2020/12/17 03:42:23;;;;;;;35.10;21.83;;;;;;;5.57;98.10;100692.66;5056632;28;20139;-81
2020/12/17 03:44:49;;;;;;;34.95;22.92;;;;;;;5.53;97.60;100691.00;5054957;28;20068;-83
2020/12/17 03:47:16;;;;;;;35.42;22.20;;;;;;;5.48;97.99;100690.25;5047314;28;20045;-81
2020/12/17 03:49:42;;;;;;;35.22;22.38;;;;;;;5.52;98.31;100686.66;5064580;28;20052;-83
2020/12/17 03:52:10;;;;;;;33.08;22.00;;;;;;;5.47;98.08;100686.75;5055614;28;20135;-83
2020/12/17 03:54:37;;;;;;;34.15;21.83;;;;;;;5.42;98.13;100687.75;5049731;28;20041;-83
2020/12/17 03:57:03;;;;;;;32.70;20.85;;;;;;;5.38;98.38;100692.19;5050305;28;20568;-83
2020/12/17 03:59:30;;;;;;;36.80;21.65;;;;;;;5.36;97.79;100701.00;5055223;28;20063;-80
2020/12/17 04:01:56;;;;;;;36.33;21.25;;;;;;;5.33;97.88;100694.06;5038343;28;20112;-80
2020/12/17 04:04:22;;;;;;;32.30;20.20;;;;;;;5.36;98.25;100693.13;5060293;28;20040;-81
2020/12/17 04:06:49;;;;;;;30.58;19.50;;;;;;;5.40;98.17;100700.03;5072059;28;20060;-81
2020/12/17 04:09:15;;;;;;;32.95;20.98;;;;;;;5.40;97.69;100694.78;5054069;28;20077;-80
2020/12/17 04:11:42;;;;;;;32.22;20.70;;;;;;;5.41;98.31;100686.88;5039149;28;20049;-80
2020/12/17 04:14:08;;;;;;;30.08;19.98;;;;;;;5.41;98.41;100693.91;5073207;28;20063;-80
2020/12/17 04:16:34;;;;;;;30.33;19.58;;;;;;;5.42;97.96;100693.00;5049003;28;20133;-81
2020/12/17 04:19:01;;;;;;;31.13;19.05;;;;;;;5.41;97.49;100692.13;5051803;28;20049;-83
2020/12/17 04:21:27;;;;;;;30.80;18.80;;;;;;;5.39;97.10;100687.81;5050131;28;20045;-80
2020/12/17 04:23:53;;;;;;;30.73;19.45;;;;;;;5.36;96.83;100691.34;5070012;28;20135;-79
2020/12/17 04:26:20;;;;;;;28.50;18.65;;;;;;;5.34;96.47;100695.81;5062599;28;20057;-83
2020/12/17 04:28:46;;;;;;;30.73;18.73;;;;;;;5.32;95.93;100699.34;5040074;28;20059;-82
2020/12/17 04:31:13;;;;;;;31.48;19.08;;;;;;;5.29;95.67;100697.66;5043734;28;20155;-82
2020/12/17 04:33:39;;;;;;;32.00;18.30;;;;;;;5.28;95.19;100702.03;5038026;28;20049;-83
2020/12/17 04:36:06;;;;;;;28.67;18.33;;;;;;;5.27;95.45;100712.56;5057992;28;20068;-82
2020/12/17 04:38:33;;;;;;;30.40;18.88;;;;;;;5.27;94.92;100709.94;5077457;28;20049;-81
2020/12/17 04:41:05;;;;;;;31.90;19.02;;;;;;;5.27;95.02;100707.31;5055196;28;20045;-82
2020/12/17 04:43:32;;;;;;;28.95;18.95;;;;;;;5.32;94.75;100715.09;5043753;28;20061;-81
2020/12/17 04:46:02;;;;;;;26.65;17.15;;;;;;;5.32;94.08;100712.47;5062867;28;20071;-83
2020/12/17 04:48:31;;;;;;;31.23;18.48;;;;;;;5.30;93.72;100717.75;5049747;28;20077;-81
2020/12/17 04:50:58;;;;;;;29.92;17.95;;;;;;;5.31;93.64;100722.13;5034593;28;20087;-82
2020/12/17 04:53:25;;;;;;;29.65;18.80;;;;;;;5.32;94.31;100717.72;5056926;28;20053;-81
2020/12/17 04:55:52;;;;;;;29.98;19.05;;;;;;;5.31;94.11;100716.00;5058274;28;20119;-80
2020/12/17 04:58:20;;;;;;;28.58;17.88;;;;;;;5.31;94.04;100721.25;5061165;28;20084;-84
2020/12/17 05:00:52;;;;;;;28.33;18.15;;;;;;;5.36;93.83;100728.13;5072629;28;20053;-80
2020/12/17 05:03:22;;;;;;;29.58;18.80;;;;;;;5.42;93.45;100727.16;5074988;28;20037;-80
2020/12/17 05:05:51;;;;;;;27.30;18.00;;;;;;;5.45;92.48;100721.84;5070854;28;20053;-79
2020/12/17 05:08:21;;;;;;;26.00;17.57;;;;;;;5.41;92.55;100714.91;5054013;28;20073;-81
2020/12/17 05:10:48;;;;;;;29.30;17.13;;;;;;;5.42;92.66;100709.63;5065715;28;20487;-80
2020/12/17 05:13:16;;;;;;;28.02;17.40;;;;;;;5.42;91.63;100719.25;5070076;28;20109;-82
2020/12/17 05:15:44;;;;;;;29.17;17.83;;;;;;;5.45;91.50;100722.69;5071879;28;20483;-79
2020/12/17 05:18:11;;;;;;;26.75;16.25;;;;;;;5.49;91.30;100723.50;5072361;28;20041;-78
2020/12/17 05:20:43;;;;;;;26.55;17.02;;;;;;;5.47;91.27;100722.66;5068204;28;20049;-80
2020/12/17 05:23:10;;;;;;;26.50;17.02;;;;;;;5.45;90.55;100729.72;5073000;28;20045;-78
2020/12/17 05:25:38;;;;;;;28.35;17.30;;;;;;;5.45;90.82;100734.97;5070304;28;20053;-82
2020/12/17 05:28:05;;;;;;;26.38;17.13;;;;;;;5.45;90.22;100734.97;5056642;28;20060;-82
2020/12/17 05:30:36;;;;;;;27.27;16.98;;;;;;;5.45;90.53;100742.84;5070189;28;20056;-82
2020/12/17 05:33:03;;;;;;;25.95;16.67;;;;;;;5.45;90.30;100743.72;5059161;28;20040;-82
2020/12/17 05:35:34;;;;;;;24.77;16.08;;;;;;;5.48;90.10;100745.41;5045890;28;20118;-83
2020/12/17 05:38:06;;;;;;;25.15;16.92;;;;;;;5.47;89.00;100744.53;5050769;28;20071;-83
2020/12/17 05:40:41;;;;;;;24.95;16.25;;;;;;;5.40;89.67;100744.69;5058565;28;20055;-83
2020/12/17 05:43:08;;;;;;;25.60;15.98;;;;;;;5.34;90.22;100747.47;5058628;28;20080;-82
2020/12/17 05:45:37;;;;;;;26.65;16.42;;;;;;;5.35;89.69;100755.31;5071655;28;20060;-82
2020/12/17 05:48:10;;;;;;;24.35;16.27;;;;;;;5.34;89.21;100758.81;5071556;28;20040;-83
2020/12/17 05:51:02;;;;;;;26.23;16.15;;;;;;;5.35;89.84;100760.56;5076520;28;20072;-83
2020/12/17 05:53:30;;;;;;;29.38;17.23;;;;;;;5.36;89.02;100764.03;5072989;28;20239;-81
2020/12/17 05:56:03;;;;;;;26.55;16.75;;;;;;;5.36;88.90;100771.91;5076534;28;20045;-82
2020/12/17 05:58:41;;;;;;;24.33;16.52;;;;;;;5.35;89.19;100765.81;5064609;28;20050;-83
2020/12/17 06:01:12;;;;;;;27.15;17.77;;;;;;;5.34;89.16;100781.59;5069000;28;20040;-83
2020/12/17 06:03:42;;;;;;;29.30;16.88;;;;;;;5.35;89.39;100784.19;5074053;28;20041;-81
2020/12/17 06:06:10;;;;;;;28.13;17.45;;;;;;;5.36;88.92;100780.66;5063258;28;20041;-80
2020/12/17 06:08:41;;;;;;;25.52;16.35;;;;;;;5.37;88.69;100784.13;5072584;28;20044;-80
2020/12/17 06:11:14;;;;;;;28.98;17.45;;;;;;;5.36;88.44;100787.66;5075205;28;20057;-82
2020/12/17 06:13:42;;;;;;;27.48;16.73;;;;;;;5.33;88.94;100790.38;5047992;28;20060;-83
2020/12/17 06:16:11;;;;;;;26.83;16.92;;;;;;;5.35;89.32;100799.09;5075378;28;20048;-82
2020/12/17 06:18:47;;;;;;;30.23;17.00;;;;;;;5.37;88.91;100797.28;5071162;28;20108;-84
2020/12/17 06:21:15;;;;;;;27.00;16.58;;;;;;;5.43;88.96;100797.16;5068190;28;20131;-83
2020/12/17 06:23:41;;;;;;;25.70;16.23;;;;;;;5.52;88.83;100810.09;5046443;28;20083;-82
2020/12/17 06:26:09;;;;;;;24.98;16.65;;;;;;;5.58;88.62;100810.00;5043939;28;20128;-81
2020/12/17 06:28:48;;;;;;;25.88;16.05;;;;;;;5.61;88.49;100817.81;5042078;28;20101;-83
2020/12/17 06:31:29;;;;;;;23.35;16.05;;;;;;;5.62;87.87;100823.03;5040155;28;20116;-83
2020/12/17 06:34:05;;;;;;;;;;;;;;;5.63;87.34;100822.16;5055382;28;20114;-83
2020/12/17 06:36:42;;;;;;;28.33;16.00;;;;;;;5.55;87.48;100815.31;5066005;28;19929;-83
2020/12/17 06:39:09;;;;;;;25.92;15.68;;;;;;;5.51;87.70;100816.28;5060905;28;20075;-82
2020/12/17 06:41:35;;;;;;;26.05;16.17;;;;;;;5.48;87.83;100819.81;5048233;28;20061;-84
2020/12/17 06:44:24;;;;;;;24.13;15.88;;;;;;;5.52;88.32;100817.97;5037284;28;20399;-82
2020/12/17 06:46:55;;;;;;;25.77;15.95;;;;;;;5.50;88.03;100818.03;5055176;28;20049;-83
2020/12/17 06:49:24;;;;;;;25.30;16.13;;;;;;;5.51;87.39;100818.91;5044301;28;20406;-83
2020/12/17 06:52:07;;;;;;;24.67;16.13;;;;;;;5.52;87.73;100820.59;5052959;28;20132;-81
2020/12/17 06:54:41;;;;;;;25.38;16.58;;;;;;;5.50;87.73;100825.06;5054955;28;20156;-83
2020/12/17 06:57:08;;;;;;;23.02;15.32;;;;;;;5.52;87.48;100818.84;5048536;28;20059;-83
2020/12/17 06:59:35;;;;;;;24.33;15.38;;;;;;;5.52;86.97;100817.97;5053721;28;20112;-83
2020/12/17 07:02:02;;;;;;;25.60;15.90;;;;;;;5.52;87.08;100820.59;5063949;28;20140;-82
2020/12/17 07:04:41;;;;;;;23.65;16.38;;;;;;;5.57;86.91;100834.53;5070732;28;20036;-82
2020/12/17 07:07:25;;;;;;;22.15;15.32;;;;;;;5.58;86.87;100844.16;5047668;28;20093;-82
2020/12/17 07:09:56;;;;;;;24.58;15.30;;;;;;;5.54;87.25;100845.97;5058412;28;20112;-84
2020/12/17 07:12:34;;;;;;;;;;;;;;;5.52;86.84;100846.88;5070870;28;20051;-81
2020/12/17 07:15:04;;;;;;;25.90;16.40;;;;;;;5.46;87.42;100842.63;5054370;28;19951;-82
2020/12/17 07:17:31;;;;;;;26.50;15.82;;;;;;;5.46;87.84;100849.63;5051473;28;20456;-84
2020/12/17 07:19:57;;;;;;;25.08;16.90;;;;;;;5.48;87.74;100853.97;5051002;28;20069;-81
2020/12/17 07:22:24;;;;;;;29.23;15.95;;;;;;;5.54;87.53;100864.34;5063573;28;20049;-79
2020/12/17 07:24:52;;;;;;;25.63;16.30;;;;;;;5.57;87.85;100864.28;5066511;28;20041;-82
2020/12/17 07:27:23;;;;;;;22.83;15.00;;;;;;;5.62;87.33;100870.34;5072232;28;20281;-79
2020/12/17 07:29:59;;;;;;;26.92;16.30;;;;;;;5.63;87.28;100871.19;5053216;28;20068;-82
2020/12/17 07:32:28;;;;;;;25.73;16.38;;;;;;;5.64;87.51;100876.44;5051924;28;20045;-83
2020/12/17 07:34:57;;;;;;;27.90;16.52;;;;;;;5.69;87.52;100883.34;5054330;28;20501;-81
2020/12/17 07:37:49;;;;;;;25.40;16.88;;;;;;;5.71;86.77;100879.78;5048761;28;20200;-80
2020/12/17 07:40:36;;;;;;;25.02;15.95;;;;;;;5.74;86.71;100877.09;5049697;28;20088;-82
2020/12/17 07:43:05;;;;;;;24.40;15.27;;;;;;;5.76;86.72;100877.94;5049665;28;20132;-83
2020/12/17 07:45:51;;;;;;;24.23;16.08;;;;;;;5.74;86.81;100887.63;5049331;28;20107;-81
2020/12/17 07:48:43;;;;;;;25.70;16.52;;;;;;;5.74;86.49;100898.13;5045904;28;20065;-81
2020/12/17 07:51:13;;;;;;;25.95;15.70;;;;;;;5.77;87.20;100890.19;5076798;28;20084;-80
2020/12/17 07:53:50;;;;;;;23.75;16.15;;;;;;;5.77;86.80;100887.56;5068378;28;20082;-80
2020/12/17 07:56:18;;;;;;;24.25;16.02;;;;;;;5.81;86.47;100891.00;5034884;28;20049;-82
2020/12/17 07:58:45;;;;;;;23.65;15.48;;;;;;;5.92;86.59;100875.91;5054416;28;20049;-82
2020/12/17 08:01:14;;;;;;;24.83;16.00;;;;;;;5.99;86.57;100878.38;5050724;28;20041;-82
2020/12/17 08:03:48;;;;;;;25.70;15.30;;;;;;;6.07;86.49;100886.13;5042247;28;20416;-81
2020/12/17 08:06:17;;;;;;;22.67;15.25;;;;;;;6.16;86.15;100904.31;5042536;28;20507;-82
2020/12/17 08:08:44;;;;;;;23.38;14.82;;;;;;;6.23;85.46;100907.69;5052795;28;20052;-82
2020/12/17 08:11:29;;;;;;;24.38;15.00;;;;;;;6.25;84.74;100898.88;5060183;28;20045;-83
2020/12/17 08:14:04;;;;;;;23.05;15.13;;;;;;;6.19;84.89;100884.97;5063773;28;20069;-84
2020/12/17 08:16:31;;;;;;;23.48;15.07;;;;;;;6.19;84.66;100887.59;5062403;28;20049;-82
2020/12/17 08:18:59;;;;;;;23.50;15.27;;;;;;;6.15;84.61;100888.56;5065459;28;20084;-81
2020/12/17 08:21:27;;;;;;;27.70;16.10;;;;;;;6.09;85.01;100884.31;5064390;28;20049;-80
2020/12/17 08:23:54;;;;;;;22.70;14.18;;;;;;;6.06;85.03;100879.13;5056156;28;20060;-82
2020/12/17 08:26:22;;;;;;;24.65;15.52;;;;;;;6.04;84.96;100883.53;5062219;28;20132;-81
2020/12/17 08:28:49;;;;;;;24.88;15.40;;;;;;;6.05;85.27;100880.00;5055565;28;20375;-82
2020/12/17 08:31:22;;;;;;;20.98;14.65;;;;;;;6.05;84.97;100873.88;5066596;28;20065;-80
2020/12/17 08:33:52;;;;;;;25.45;15.75;;;;;;;6.07;85.40;100880.84;5070311;28;20071;-80
2020/12/17 08:36:23;;;;;;;22.10;14.88;;;;;;;6.16;86.00;100893.78;5067308;28;20040;-83
2020/12/17 08:39:03;;;;;;;21.25;14.23;;;;;;;6.26;85.85;100891.84;5082291;28;20041;-81
2020/12/17 08:41:49;;;;;;;23.30;15.00;;;;;;;6.33;84.99;100898.69;5047327;28;20127;-82
2020/12/17 08:46:56;;;;;;;26.02;15.48;;;;;;;6.45;85.47;100911.59;5046900;22;20272;-85
2020/12/17 08:49:27;;;;;;;21.33;15.07;;;;;;;6.50;85.26;100917.63;5048337;28;20068;-85
2020/12/17 08:51:53;;;;;;;;;;;;;;;6.59;84.82;100935.84;5053674;28;20109;-83
2020/12/17 08:54:32;;;;;;;23.00;15.20;;;;;;;6.64;84.52;100936.59;5424673;22;20423;-77
2020/12/17 08:57:09;;;;;;;26.95;15.95;;;;;;;6.71;84.73;100932.06;5033675;28;20128;-76
2020/12/17 08:59:37;;;;;;;24.50;14.85;;;;;;;6.75;84.60;100924.97;5031923;28;20052;-74
2020/12/17 09:02:04;;;;;;;22.42;14.80;;;;;;;6.75;84.35;100925.84;5029788;28;20064;-75
2020/12/17 09:04:30;;;;;;;25.63;16.73;;;;;;;6.77;84.49;100929.28;5030314;28;20048;-76
2020/12/17 09:07:01;;;;;;;23.25;15.70;;;;;;;6.77;84.48;100925.81;5032760;28;20062;-76
2020/12/17 09:09:33;;;;;;;25.33;15.63;;;;;;;6.75;84.59;100930.25;5029528;28;20045;-75
2020/12/17 09:12:07;;;;;;;26.25;15.52;;;;;;;6.74;84.74;100931.16;5028521;28;20519;-76
2020/12/17 09:14:35;;;;;;;23.40;15.30;;;;;;;6.72;84.81;100933.81;5029895;28;20080;-77
2020/12/17 09:17:14;;;;;;;23.00;15.50;;;;;;;6.87;84.39;100940.47;5022618;28;20064;-76
2020/12/17 09:19:43;;;;;;;23.38;15.52;;;;;;;6.84;84.53;100940.56;5020437;28;20057;-77
2020/12/17 09:22:11;;;;;;;27.13;16.73;;;;;;;6.85;85.07;100950.19;5038543;28;20592;-77
2020/12/17 09:24:46;;;;;;;29.17;16.15;;;;;;;6.91;86.10;100948.28;5033958;28;20133;-75
2020/12/17 09:27:23;;;;;;;24.83;16.50;;;;;;;7.05;87.29;100953.22;5022508;28;20045;-77
2020/12/17 09:30:15;;;;;;;25.23;16.85;;;;;;;7.27;86.33;100954.41;5028404;28;20067;-77
2020/12/17 09:33:15;;;;;;;28.48;16.55;;;;;;;7.28;84.03;100958.78;5010925;28;20037;-77
2020/12/17 09:35:42;;;;;;;20.50;14.73;;;;;;;7.24;83.56;100957.13;5035085;28;20077;-75
2020/12/17 09:38:11;;;;;;;25.42;16.05;;;;;;;7.27;83.42;100958.81;5027513;28;20045;-77
2020/12/17 09:40:43;;;;;;;23.40;15.60;;;;;;;7.18;83.86;100957.28;5031871;28;20049;-77
2020/12/17 09:43:14;;;;;;;24.27;15.75;;;;;;;7.16;83.76;100966.13;5033730;28;20045;-76
2020/12/17 09:45:46;;;;;;;24.92;15.88;;;;;;;7.11;84.12;100965.34;5030159;28;20042;-78
2020/12/17 09:48:23;;;;;;;23.73;15.18;;;;;;;7.03;84.31;100961.16;5029857;28;20107;-75
2020/12/17 09:51:04;;;;;;;22.55;15.48;;;;;;;7.03;84.46;100962.94;5029811;28;20060;-76
2020/12/17 09:53:34;;;;;;;25.73;15.68;;;;;;;6.97;84.67;100963.91;5032920;28;20129;-76
2020/12/17 09:56:00;;;;;;;23.45;15.90;;;;;;;6.96;85.50;100953.41;5033495;28;20046;-76
2020/12/17 09:58:27;;;;;;;24.50;16.40;;;;;;;6.97;85.39;100963.06;5028591;28;20052;-78
2020/12/17 10:00:53;;;;;;;24.20;16.45;;;;;;;6.92;85.35;100968.44;5029048;28;20516;-76
2020/12/17 10:03:20;;;;;;;26.38;16.50;;;;;;;6.99;85.80;100977.06;5030040;28;20064;-77
2020/12/17 10:05:46;;;;;;;23.83;16.60;;;;;;;6.97;85.71;100974.44;5033421;28;20049;-76
2020/12/17 10:08:14;;;;;;;27.85;16.05;;;;;;;6.95;85.53;100978.03;5033579;28;20111;-75
2020/12/17 10:10:40;;;;;;;24.35;16.05;;;;;;;6.95;86.05;100973.63;5032572;28;20052;-75
2020/12/17 10:13:09;;;;;;;23.20;16.08;;;;;;;6.92;86.49;100980.75;5028573;28;20052;-75
2020/12/17 10:15:36;;;;;;;26.08;17.45;;;;;;;6.96;86.23;100988.50;5032852;28;20057;-76
2020/12/17 10:18:02;;;;;;;23.27;16.42;;;;;;;6.97;86.25;100986.75;5033003;28;20477;-76
2020/12/17 10:20:29;;;;;;;25.45;17.15;;;;;;;6.94;86.40;100994.72;5034961;28;20555;-77
2020/12/17 10:22:56;;;;;;;23.38;16.20;;;;;;;6.96;86.92;100988.50;5034720;28;20056;-77
2020/12/17 10:25:23;;;;;;;24.38;16.70;;;;;;;6.98;86.81;100996.38;5024699;28;20041;-75
2020/12/17 10:27:52;;;;;;;25.52;17.33;;;;;;;6.97;87.02;100995.53;5028980;28;20117;-76
2020/12/17 10:30:19;;;;;;;24.73;16.77;;;;;;;7.11;85.87;100994.31;5017980;28;20103;-75
2020/12/17 10:32:45;;;;;;;27.98;17.63;;;;;;;7.07;85.94;101001.47;5035901;28;20492;-76
2020/12/17 10:35:12;;;;;;;23.75;17.35;;;;;;;6.98;86.83;101001.66;5037391;28;20045;-75
2020/12/17 10:37:40;;;;;;;26.23;17.90;;;;;;;6.93;87.06;100993.84;5036275;28;20045;-77
2020/12/17 10:40:08;;;;;;;28.05;18.20;;;;;;;6.97;87.75;100994.66;5026803;28;20050;-77
2020/12/17 10:42:39;;;;;;;26.73;17.63;;;;;;;7.07;86.63;100992.69;5031302;28;20081;-76
2020/12/17 10:45:06;;;;;;;26.35;17.80;;;;;;;7.12;87.26;100994.28;5033924;28;20065;-76
2020/12/17 10:47:32;;;;;;;25.02;17.33;;;;;;;7.20;86.95;100992.38;5030786;28;20081;-76
2020/12/17 10:49:59;;;;;;;27.23;17.65;;;;;;;7.22;86.90;100994.97;5034567;28;20128;-77
2020/12/17 10:52:25;;;;;;;24.90;16.95;;;;;;;7.21;87.22;100994.09;5030824;28;20075;-75
2020/12/17 10:54:52;;;;;;;29.92;18.40;;;;;;;7.16;87.48;100977.53;5025002;28;20152;-76
2020/12/17 10:57:20;;;;;;;33.15;19.48;;;;;;;7.18;87.77;100985.41;5033425;28;20049;-77
2020/12/17 10:59:47;;;;;;;28.88;18.92;;;;;;;7.25;87.80;100982.56;5031670;28;20052;-76
2020/12/17 11:02:15;;;;;;;28.70;19.17;;;;;;;7.33;87.94;100985.91;5033701;28;20072;-79
2020/12/17 11:04:42;;;;;;;27.27;18.75;;;;;;;7.36;87.40;100980.56;5013602;28;20151;-75
2020/12/17 11:07:09;;;;;;;25.33;17.25;;;;;;;7.37;87.72;100978.78;5033117;28;20053;-76
2020/12/17 11:09:36;;;;;;;30.23;18.80;;;;;;;7.39;86.89;100975.22;5032932;28;20063;-76
2020/12/17 11:12:02;;;;;;;28.65;18.98;;;;;;;7.48;87.49;100982.00;5035569;28;20073;-77
2020/12/17 11:14:29;;;;;;;27.17;18.25;;;;;;;7.55;87.15;100986.25;5034765;28;20063;-76
2020/12/17 11:17:02;;;;;;;25.50;17.27;;;;;;;7.54;86.64;100981.88;5033212;28;20063;-76
2020/12/17 11:19:30;;;;;;;26.50;18.45;;;;;;;7.54;86.77;100987.16;5033506;28;20511;-76
2020/12/17 11:22:01;;;;;;;28.00;18.63;;;;;;;7.55;87.04;100993.28;5034741;28;20068;-76
2020/12/17 11:24:28;;;;;;;26.70;18.13;;;;;;;7.57;86.19;100988.81;5038344;28;20068;-78
2020/12/17 11:26:54;;;;;;;26.65;18.70;;;;;;;7.59;86.74;100987.00;5031099;28;20055;-76
2020/12/17 11:29:21;;;;;;;26.63;18.25;;;;;;;7.62;86.43;100979.91;5034254;28;20057;-76